sensor_id;sensor_type;location;lat;lon;timestamp;temperature;humidity
38398;DHT22;24179;52.094;4.408;2023-07-20T00:00:53;15.30;99.90
38398;DHT22;24179;52.094;4.408;2023-07-20T00:03:53;15.30;99.90
38398;DHT22;24179;52.094;4.408;2023-07-20T00:06:57;15.20;99.90
38398;DHT22;24179;52.094;4.408;2023-07-20T00:09:57;15.10;99.90
38398;DHT22;24179;52.094;4.408;2023-07-20T00:12:58;15.10;99.90
38398;DHT22;24179;52.094;4.408;2023-07-20T00:15:58;15.00;99.90
38398;DHT22;24179;52.094;4.408;2023-07-20T00:18:59;15.00;99.90
38398;DHT22;24179;52.094;4.408;2023-07-20T00:21:59;15.00;99.90
38398;DHT22;24179;52.094;4.408;2023-07-20T00:25:00;14.90;99.90
38398;DHT22;24179;52.094;4.408;2023-07-20T00:28:00;14.80;99.90
38398;DHT22;24179;52.094;4.408;2023-07-20T00:31:01;14.80;99.90
38398;DHT22;24179;52.094;4.408;2023-07-20T00:34:03;14.80;99.90
38398;DHT22;24179;52.094;4.408;2023-07-20T00:37:04;14.60;99.90
38398;DHT22;24179;52.094;4.408;2023-07-20T00:40:07;14.50;99.90
38398;DHT22;24179;52.094;4.408;2023-07-20T00:43:08;14.40;99.90
38398;DHT22;24179;52.094;4.408;2023-07-20T00:46:08;14.40;99.90
38398;DHT22;24179;52.094;4.408;2023-07-20T00:49:09;14.40;99.90
38398;DHT22;24179;52.094;4.408;2023-07-20T00:52:10;14.40;99.90
38398;DHT22;24179;52.094;4.408;2023-07-20T00:55:11;14.20;99.90
38398;DHT22;24179;52.094;4.408;2023-07-20T00:58:11;14.20;99.90
38398;DHT22;24179;52.094;4.408;2023-07-20T01:01:12;14.20;99.90
38398;DHT22;24179;52.094;4.408;2023-07-20T01:04:12;14.10;99.90
38398;DHT22;24179;52.094;4.408;2023-07-20T01:10:39;14.30;99.90
38398;DHT22;24179;52.094;4.408;2023-07-20T01:13:38;14.40;99.90
38398;DHT22;24179;52.094;4.408;2023-07-20T01:16:42;14.30;99.90
38398;DHT22;24179;52.094;4.408;2023-07-20T01:19:43;14.30;99.90
38398;DHT22;24179;52.094;4.408;2023-07-20T01:32:24;14.60;99.90
38398;DHT22;24179;52.094;4.408;2023-07-20T01:35:27;14.70;99.90
38398;DHT22;24179;52.094;4.408;2023-07-20T01:38:28;14.80;99.90
38398;DHT22;24179;52.094;4.408;2023-07-20T01:41:29;14.80;99.90
38398;DHT22;24179;52.094;4.408;2023-07-20T01:44:29;14.80;99.90
38398;DHT22;24179;52.094;4.408;2023-07-20T01:47:30;14.70;99.90
38398;DHT22;24179;52.094;4.408;2023-07-20T01:50:30;14.60;99.90
38398;DHT22;24179;52.094;4.408;2023-07-20T01:53:31;14.50;99.90
38398;DHT22;24179;52.094;4.408;2023-07-20T01:56:31;14.40;99.90
38398;DHT22;24179;52.094;4.408;2023-07-20T01:59:32;14.40;99.90
38398;DHT22;24179;52.094;4.408;2023-07-20T02:02:36;14.50;99.90
38398;DHT22;24179;52.094;4.408;2023-07-20T02:05:36;15.00;99.90
38398;DHT22;24179;52.094;4.408;2023-07-20T02:08:37;14.70;99.90
38398;DHT22;24179;52.094;4.408;2023-07-20T02:11:38;14.70;99.90
38398;DHT22;24179;52.094;4.408;2023-07-20T02:14:39;14.70;99.90
38398;DHT22;24179;52.094;4.408;2023-07-20T02:17:39;14.70;99.90
38398;DHT22;24179;52.094;4.408;2023-07-20T02:20:41;14.70;99.90
38398;DHT22;24179;52.094;4.408;2023-07-20T02:23:42;14.80;99.90
38398;DHT22;24179;52.094;4.408;2023-07-20T02:26:42;14.80;99.90
38398;DHT22;24179;52.094;4.408;2023-07-20T02:29:43;14.70;99.90
38398;DHT22;24179;52.094;4.408;2023-07-20T02:32:44;14.60;99.90
38398;DHT22;24179;52.094;4.408;2023-07-20T02:35:48;14.50;99.90
38398;DHT22;24179;52.094;4.408;2023-07-20T02:38:49;14.30;99.90
38398;DHT22;24179;52.094;4.408;2023-07-20T02:41:49;14.20;99.90
38398;DHT22;24179;52.094;4.408;2023-07-20T02:44:50;14.10;99.90
38398;DHT22;24179;52.094;4.408;2023-07-20T02:47:51;14.00;99.90
38398;DHT22;24179;52.094;4.408;2023-07-20T02:50:51;13.90;99.90
38398;DHT22;24179;52.094;4.408;2023-07-20T02:53:52;13.90;99.90
38398;DHT22;24179;52.094;4.408;2023-07-20T02:56:52;13.80;99.90
38398;DHT22;24179;52.094;4.408;2023-07-20T02:59:53;13.80;99.90
38398;DHT22;24179;52.094;4.408;2023-07-20T03:02:54;13.80;99.90
38398;DHT22;24179;52.094;4.408;2023-07-20T03:05:57;13.70;99.90
38398;DHT22;24179;52.094;4.408;2023-07-20T03:08:59;13.70;99.90
38398;DHT22;24179;52.094;4.408;2023-07-20T03:11:59;13.70;99.90
38398;DHT22;24179;52.094;4.408;2023-07-20T03:15:02;13.70;99.90
38398;DHT22;24179;52.094;4.408;2023-07-20T03:18:05;13.70;99.90
38398;DHT22;24179;52.094;4.408;2023-07-20T03:21:06;13.80;99.90
38398;DHT22;24179;52.094;4.408;2023-07-20T03:24:08;13.80;99.90
38398;DHT22;24179;52.094;4.408;2023-07-20T03:27:08;13.90;99.90
38398;DHT22;24179;52.094;4.408;2023-07-20T03:30:09;13.90;99.90
38398;DHT22;24179;52.094;4.408;2023-07-20T03:33:10;13.90;99.90
38398;DHT22;24179;52.094;4.408;2023-07-20T03:36:11;13.90;99.90
38398;DHT22;24179;52.094;4.408;2023-07-20T03:39:12;13.80;99.90
38398;DHT22;24179;52.094;4.408;2023-07-20T03:42:13;13.80;99.90
38398;DHT22;24179;52.094;4.408;2023-07-20T03:45:13;13.80;99.90
38398;DHT22;24179;52.094;4.408;2023-07-20T03:48:17;13.70;99.90
38398;DHT22;24179;52.094;4.408;2023-07-20T03:51:18;13.70;99.90
38398;DHT22;24179;52.094;4.408;2023-07-20T03:54:19;13.60;99.90
38398;DHT22;24179;52.094;4.408;2023-07-20T03:57:19;13.50;99.90
38398;DHT22;24179;52.094;4.408;2023-07-20T04:00:20;13.60;99.90
38398;DHT22;24179;52.094;4.408;2023-07-20T04:03:21;13.60;99.90
38398;DHT22;24179;52.094;4.408;2023-07-20T04:06:25;13.70;99.90
38398;DHT22;24179;52.094;4.408;2023-07-20T04:09:25;14.00;99.90
38398;DHT22;24179;52.094;4.408;2023-07-20T04:12:25;14.00;99.90
38398;DHT22;24179;52.094;4.408;2023-07-20T04:15:26;14.20;99.90
38398;DHT22;24179;52.094;4.408;2023-07-20T04:18:26;14.30;99.90
38398;DHT22;24179;52.094;4.408;2023-07-20T04:21:27;14.50;99.90
38398;DHT22;24179;52.094;4.408;2023-07-20T04:24:28;14.60;99.90
38398;DHT22;24179;52.094;4.408;2023-07-20T04:27:28;14.70;99.90
38398;DHT22;24179;52.094;4.408;2023-07-20T04:30:28;14.90;99.90
38398;DHT22;24179;52.094;4.408;2023-07-20T04:33:29;15.00;99.90
38398;DHT22;24179;52.094;4.408;2023-07-20T04:36:29;15.20;99.90
38398;DHT22;24179;52.094;4.408;2023-07-20T04:39:30;15.30;99.90
38398;DHT22;24179;52.094;4.408;2023-07-20T04:42:31;15.30;99.90
38398;DHT22;24179;52.094;4.408;2023-07-20T04:45:34;15.30;99.90
38398;DHT22;24179;52.094;4.408;2023-07-20T04:48:34;15.40;99.90
38398;DHT22;24179;52.094;4.408;2023-07-20T04:51:35;15.50;99.90
38398;DHT22;24179;52.094;4.408;2023-07-20T04:54:38;15.60;99.90
38398;DHT22;24179;52.094;4.408;2023-07-20T04:57:39;15.60;99.90
38398;DHT22;24179;52.094;4.408;2023-07-20T05:00:42;15.60;99.90
38398;DHT22;24179;52.094;4.408;2023-07-20T05:03:42;15.60;99.90
38398;DHT22;24179;52.094;4.408;2023-07-20T05:06:43;15.60;99.90
38398;DHT22;24179;52.094;4.408;2023-07-20T05:09:44;15.60;99.90
38398;DHT22;24179;52.094;4.408;2023-07-20T05:12:56;15.50;99.90
38398;DHT22;24179;52.094;4.408;2023-07-20T05:15:57;15.40;99.90
38398;DHT22;24179;52.094;4.408;2023-07-20T05:18:57;15.40;99.90
38398;DHT22;24179;52.094;4.408;2023-07-20T05:21:58;15.40;99.90
38398;DHT22;24179;52.094;4.408;2023-07-20T05:24:58;15.30;99.90
38398;DHT22;24179;52.094;4.408;2023-07-20T05:27:59;15.20;99.90
38398;DHT22;24179;52.094;4.408;2023-07-20T05:31:01;15.20;99.90
38398;DHT22;24179;52.094;4.408;2023-07-20T05:34:03;15.10;99.90
38398;DHT22;24179;52.094;4.408;2023-07-20T05:37:03;15.20;99.90
38398;DHT22;24179;52.094;4.408;2023-07-20T05:40:04;15.10;99.90
38398;DHT22;24179;52.094;4.408;2023-07-20T05:43:05;15.20;99.90
38398;DHT22;24179;52.094;4.408;2023-07-20T05:46:05;15.30;99.90
38398;DHT22;24179;52.094;4.408;2023-07-20T05:49:06;15.30;99.90
38398;DHT22;24179;52.094;4.408;2023-07-20T05:52:06;15.30;99.90
38398;DHT22;24179;52.094;4.408;2023-07-20T05:55:07;15.30;99.90
38398;DHT22;24179;52.094;4.408;2023-07-20T05:58:07;15.40;99.90
38398;DHT22;24179;52.094;4.408;2023-07-20T06:01:08;15.50;99.90
38398;DHT22;24179;52.094;4.408;2023-07-20T06:04:09;15.50;99.90
38398;DHT22;24179;52.094;4.408;2023-07-20T06:07:09;15.50;99.90
38398;DHT22;24179;52.094;4.408;2023-07-20T06:10:09;15.50;99.90
38398;DHT22;24179;52.094;4.408;2023-07-20T06:13:10;15.50;99.90
38398;DHT22;24179;52.094;4.408;2023-07-20T06:16:10;15.50;99.90
38398;DHT22;24179;52.094;4.408;2023-07-20T06:19:11;15.40;99.90
38398;DHT22;24179;52.094;4.408;2023-07-20T06:22:12;15.50;99.90
38398;DHT22;24179;52.094;4.408;2023-07-20T06:25:12;15.60;99.90
38398;DHT22;24179;52.094;4.408;2023-07-20T06:28:13;15.60;99.90
38398;DHT22;24179;52.094;4.408;2023-07-20T06:31:14;15.70;99.90
38398;DHT22;24179;52.094;4.408;2023-07-20T06:34:15;15.70;99.90
38398;DHT22;24179;52.094;4.408;2023-07-20T06:37:17;15.80;99.90
38398;DHT22;24179;52.094;4.408;2023-07-20T06:40:17;15.90;99.90
38398;DHT22;24179;52.094;4.408;2023-07-20T06:43:18;16.10;99.90
38398;DHT22;24179;52.094;4.408;2023-07-20T06:46:19;16.10;99.90
38398;DHT22;24179;52.094;4.408;2023-07-20T06:49:23;16.40;99.90
38398;DHT22;24179;52.094;4.408;2023-07-20T06:52:27;16.60;99.90
38398;DHT22;24179;52.094;4.408;2023-07-20T06:55:27;16.60;99.90
38398;DHT22;24179;52.094;4.408;2023-07-20T06:58:28;17.30;99.90
38398;DHT22;24179;52.094;4.408;2023-07-20T07:01:34;18.00;99.90
38398;DHT22;24179;52.094;4.408;2023-07-20T07:04:34;18.00;99.90
38398;DHT22;24179;52.094;4.408;2023-07-20T07:07:35;17.80;99.90
38398;DHT22;24179;52.094;4.408;2023-07-20T07:10:35;17.70;99.90
38398;DHT22;24179;52.094;4.408;2023-07-20T07:13:36;17.80;99.90
38398;DHT22;24179;52.094;4.408;2023-07-20T07:16:39;17.80;99.90
38398;DHT22;24179;52.094;4.408;2023-07-20T07:19:40;17.90;99.90
38398;DHT22;24179;52.094;4.408;2023-07-20T07:22:41;18.00;99.90
38398;DHT22;24179;52.094;4.408;2023-07-20T07:25:44;18.20;99.90
38398;DHT22;24179;52.094;4.408;2023-07-20T07:28:44;18.30;99.90
38398;DHT22;24179;52.094;4.408;2023-07-20T07:31:45;18.20;99.90
38398;DHT22;24179;52.094;4.408;2023-07-20T07:34:45;18.00;99.90
38398;DHT22;24179;52.094;4.408;2023-07-20T07:37:49;17.80;99.90
38398;DHT22;24179;52.094;4.408;2023-07-20T07:40:49;17.60;99.90
38398;DHT22;24179;52.094;4.408;2023-07-20T07:43:50;17.70;99.90
38398;DHT22;24179;52.094;4.408;2023-07-20T07:46:53;18.70;99.90
38398;DHT22;24179;52.094;4.408;2023-07-20T07:49:54;19.60;99.90
38398;DHT22;24179;52.094;4.408;2023-07-20T07:52:54;20.50;99.90
38398;DHT22;24179;52.094;4.408;2023-07-20T07:55:55;21.30;99.90
38398;DHT22;24179;52.094;4.408;2023-07-20T07:58:55;21.80;99.90
38398;DHT22;24179;52.094;4.408;2023-07-20T08:01:58;22.10;99.90
38398;DHT22;24179;52.094;4.408;2023-07-20T08:04:59;22.20;99.90
38398;DHT22;24179;52.094;4.408;2023-07-20T08:08:01;22.40;99.90
38398;DHT22;24179;52.094;4.408;2023-07-20T08:11:02;22.60;99.90
38398;DHT22;24179;52.094;4.408;2023-07-20T08:14:02;22.50;99.90
38398;DHT22;24179;52.094;4.408;2023-07-20T08:17:06;22.10;99.90
38398;DHT22;24179;52.094;4.408;2023-07-20T08:20:06;22.00;99.90
38398;DHT22;24179;52.094;4.408;2023-07-20T08:23:07;22.00;99.90
38398;DHT22;24179;52.094;4.408;2023-07-20T08:26:09;22.40;99.90
38398;DHT22;24179;52.094;4.408;2023-07-20T08:29:10;22.80;99.90
38398;DHT22;24179;52.094;4.408;2023-07-20T08:32:10;22.40;99.90
38398;DHT22;24179;52.094;4.408;2023-07-20T08:35:11;22.80;99.90
38398;DHT22;24179;52.094;4.408;2023-07-20T08:38:11;23.30;99.90
38398;DHT22;24179;52.094;4.408;2023-07-20T08:41:15;23.70;99.90
38398;DHT22;24179;52.094;4.408;2023-07-20T08:44:16;24.00;99.90
38398;DHT22;24179;52.094;4.408;2023-07-20T08:47:17;24.00;99.90
38398;DHT22;24179;52.094;4.408;2023-07-20T08:50:18;23.80;99.90
38398;DHT22;24179;52.094;4.408;2023-07-20T08:53:19;23.60;99.90
38398;DHT22;24179;52.094;4.408;2023-07-20T08:56:20;24.00;99.90
38398;DHT22;24179;52.094;4.408;2023-07-20T08:59:22;24.00;99.90
38398;DHT22;24179;52.094;4.408;2023-07-20T09:02:24;24.00;99.90
38398;DHT22;24179;52.094;4.408;2023-07-20T09:05:26;23.40;99.90
38398;DHT22;24179;52.094;4.408;2023-07-20T09:08:27;23.10;99.90
38398;DHT22;24179;52.094;4.408;2023-07-20T09:11:27;23.50;99.90
38398;DHT22;24179;52.094;4.408;2023-07-20T09:14:28;23.90;99.90
38398;DHT22;24179;52.094;4.408;2023-07-20T09:17:31;24.10;99.90
38398;DHT22;24179;52.094;4.408;2023-07-20T09:20:32;24.60;99.90
38398;DHT22;24179;52.094;4.408;2023-07-20T09:23:36;24.80;99.90
38398;DHT22;24179;52.094;4.408;2023-07-20T09:26:41;25.00;99.90
38398;DHT22;24179;52.094;4.408;2023-07-20T09:29:48;24.90;99.90
38398;DHT22;24179;52.094;4.408;2023-07-20T09:32:49;24.90;99.90
38398;DHT22;24179;52.094;4.408;2023-07-20T09:35:53;25.20;99.90
38398;DHT22;24179;52.094;4.408;2023-07-20T09:38:54;25.40;99.90
38398;DHT22;24179;52.094;4.408;2023-07-20T09:41:55;24.80;99.90
38398;DHT22;24179;52.094;4.408;2023-07-20T09:45:00;24.60;99.90
38398;DHT22;24179;52.094;4.408;2023-07-20T09:48:06;24.70;99.90
38398;DHT22;24179;52.094;4.408;2023-07-20T09:51:07;25.10;99.90
38398;DHT22;24179;52.094;4.408;2023-07-20T09:54:08;25.50;99.90
38398;DHT22;24179;52.094;4.408;2023-07-20T09:57:09;26.00;99.90
38398;DHT22;24179;52.094;4.408;2023-07-20T10:00:10;26.60;99.90
38398;DHT22;24179;52.094;4.408;2023-07-20T10:03:14;26.80;99.90
38398;DHT22;24179;52.094;4.408;2023-07-20T10:06:18;26.70;99.90
38398;DHT22;24179;52.094;4.408;2023-07-20T10:09:20;27.30;99.90
38398;DHT22;24179;52.094;4.408;2023-07-20T10:12:22;26.50;94.80
38398;DHT22;24179;52.094;4.408;2023-07-20T10:15:30;26.20;99.90
38398;DHT22;24179;52.094;4.408;2023-07-20T10:18:44;26.30;99.90
38398;DHT22;24179;52.094;4.408;2023-07-20T10:21:49;26.90;99.90
38398;DHT22;24179;52.094;4.408;2023-07-20T10:24:51;27.40;98.70
38398;DHT22;24179;52.094;4.408;2023-07-20T10:27:54;28.40;99.30
38398;DHT22;24179;52.094;4.408;2023-07-20T10:30:55;29.10;99.40
38398;DHT22;24179;52.094;4.408;2023-07-20T10:33:56;29.00;97.60
38398;DHT22;24179;52.094;4.408;2023-07-20T10:36:57;28.90;97.90
38398;DHT22;24179;52.094;4.408;2023-07-20T10:39:57;28.90;94.90
38398;DHT22;24179;52.094;4.408;2023-07-20T10:42:58;29.50;94.70
38398;DHT22;24179;52.094;4.408;2023-07-20T10:46:00;28.80;95.50
38398;DHT22;24179;52.094;4.408;2023-07-20T10:49:04;29.60;93.20
38398;DHT22;24179;52.094;4.408;2023-07-20T10:52:05;29.00;91.90
38398;DHT22;24179;52.094;4.408;2023-07-20T10:55:16;28.20;93.40
38398;DHT22;24179;52.094;4.408;2023-07-20T10:58:16;28.50;91.90
38398;DHT22;24179;52.094;4.408;2023-07-20T11:01:17;29.70;95.00
38398;DHT22;24179;52.094;4.408;2023-07-20T11:04:20;30.50;93.70
38398;DHT22;24179;52.094;4.408;2023-07-20T11:07:37;30.30;88.70
38398;DHT22;24179;52.094;4.408;2023-07-20T11:10:44;28.60;88.20
38398;DHT22;24179;52.094;4.408;2023-07-20T11:13:54;28.10;88.90
38398;DHT22;24179;52.094;4.408;2023-07-20T11:16:56;27.70;89.50
38398;DHT22;24179;52.094;4.408;2023-07-20T11:20:10;28.20;90.80
38398;DHT22;24179;52.094;4.408;2023-07-20T11:23:15;29.40;89.00
38398;DHT22;24179;52.094;4.408;2023-07-20T11:26:16;29.80;90.70
38398;DHT22;24179;52.094;4.408;2023-07-20T11:29:17;30.80;88.50
38398;DHT22;24179;52.094;4.408;2023-07-20T11:32:22;30.90;84.40
38398;DHT22;24179;52.094;4.408;2023-07-20T11:35:22;30.90;87.20
38398;DHT22;24179;52.094;4.408;2023-07-20T11:38:23;32.20;83.40
38398;DHT22;24179;52.094;4.408;2023-07-20T11:41:24;31.50;81.10
38398;DHT22;24179;52.094;4.408;2023-07-20T11:44:26;31.40;81.50
38398;DHT22;24179;52.094;4.408;2023-07-20T11:47:29;31.60;83.70
38398;DHT22;24179;52.094;4.408;2023-07-20T11:50:30;31.50;80.20
38398;DHT22;24179;52.094;4.408;2023-07-20T11:53:30;31.00;76.80
38398;DHT22;24179;52.094;4.408;2023-07-20T11:56:33;30.60;78.60
38398;DHT22;24179;52.094;4.408;2023-07-20T11:59:33;31.10;80.10
38398;DHT22;24179;52.094;4.408;2023-07-20T12:02:34;30.70;79.10
38398;DHT22;24179;52.094;4.408;2023-07-20T12:05:39;31.70;83.10
38398;DHT22;24179;52.094;4.408;2023-07-20T12:08:41;32.10;80.80
38398;DHT22;24179;52.094;4.408;2023-07-20T12:11:42;32.30;77.40
38398;DHT22;24179;52.094;4.408;2023-07-20T12:14:43;31.50;79.80
38398;DHT22;24179;52.094;4.408;2023-07-20T12:17:44;31.10;77.20
38398;DHT22;24179;52.094;4.408;2023-07-20T12:20:45;30.10;76.50
38398;DHT22;24179;52.094;4.408;2023-07-20T12:23:45;30.40;76.70
38398;DHT22;24179;52.094;4.408;2023-07-20T12:26:46;29.70;77.30
38398;DHT22;24179;52.094;4.408;2023-07-20T12:29:46;29.70;80.50
38398;DHT22;24179;52.094;4.408;2023-07-20T12:32:47;29.10;76.50
38398;DHT22;24179;52.094;4.408;2023-07-20T12:35:47;29.90;78.60
38398;DHT22;24179;52.094;4.408;2023-07-20T12:38:48;28.70;78.70
38398;DHT22;24179;52.094;4.408;2023-07-20T12:41:48;29.70;78.90
38398;DHT22;24179;52.094;4.408;2023-07-20T12:44:49;29.40;77.80
38398;DHT22;24179;52.094;4.408;2023-07-20T12:47:49;28.90;76.60
38398;DHT22;24179;52.094;4.408;2023-07-20T12:50:50;28.20;77.80
38398;DHT22;24179;52.094;4.408;2023-07-20T12:53:53;28.70;79.50
38398;DHT22;24179;52.094;4.408;2023-07-20T12:56:54;30.30;79.60
38398;DHT22;24179;52.094;4.408;2023-07-20T12:59:54;29.80;77.70
38398;DHT22;24179;52.094;4.408;2023-07-20T13:02:55;29.90;79.40
38398;DHT22;24179;52.094;4.408;2023-07-20T13:05:56;29.20;76.80
38398;DHT22;24179;52.094;4.408;2023-07-20T13:08:58;29.30;78.30
38398;DHT22;24179;52.094;4.408;2023-07-20T13:11:59;30.20;78.40
38398;DHT22;24179;52.094;4.408;2023-07-20T13:15:10;30.50;76.00
38398;DHT22;24179;52.094;4.408;2023-07-20T13:18:10;30.20;76.80
38398;DHT22;24179;52.094;4.408;2023-07-20T13:21:11;30.50;79.00
38398;DHT22;24179;52.094;4.408;2023-07-20T13:24:12;30.60;77.10
38398;DHT22;24179;52.094;4.408;2023-07-20T13:27:12;30.60;77.70
38398;DHT22;24179;52.094;4.408;2023-07-20T13:30:13;30.80;75.50
38398;DHT22;24179;52.094;4.408;2023-07-20T13:33:16;30.60;74.20
38398;DHT22;24179;52.094;4.408;2023-07-20T13:36:17;29.90;74.50
38398;DHT22;24179;52.094;4.408;2023-07-20T13:39:21;29.90;78.00
38398;DHT22;24179;52.094;4.408;2023-07-20T13:42:24;29.60;75.20
38398;DHT22;24179;52.094;4.408;2023-07-20T13:45:25;29.90;77.30
38398;DHT22;24179;52.094;4.408;2023-07-20T13:48:25;30.30;76.00
38398;DHT22;24179;52.094;4.408;2023-07-20T13:51:26;29.50;77.30
38398;DHT22;24179;52.094;4.408;2023-07-20T13:54:27;28.90;77.90
38398;DHT22;24179;52.094;4.408;2023-07-20T13:57:27;28.50;77.80
38398;DHT22;24179;52.094;4.408;2023-07-20T14:00:28;28.30;77.80
38398;DHT22;24179;52.094;4.408;2023-07-20T14:03:33;28.40;79.40
38398;DHT22;24179;52.094;4.408;2023-07-20T14:06:33;29.10;76.70
38398;DHT22;24179;52.094;4.408;2023-07-20T14:09:34;29.60;76.20
38398;DHT22;24179;52.094;4.408;2023-07-20T14:12:35;30.20;75.80
38398;DHT22;24179;52.094;4.408;2023-07-20T14:15:36;30.40;76.00
38398;DHT22;24179;52.094;4.408;2023-07-20T14:18:36;30.20;75.60
38398;DHT22;24179;52.094;4.408;2023-07-20T14:21:37;29.00;75.80
38398;DHT22;24179;52.094;4.408;2023-07-20T14:24:37;28.60;76.10
38398;DHT22;24179;52.094;4.408;2023-07-20T14:27:38;28.40;77.70
38398;DHT22;24179;52.094;4.408;2023-07-20T14:30:38;28.40;76.20
38398;DHT22;24179;52.094;4.408;2023-07-20T14:33:39;27.80;76.50
38398;DHT22;24179;52.094;4.408;2023-07-20T14:36:43;27.10;77.80
38398;DHT22;24179;52.094;4.408;2023-07-20T14:39:43;26.30;79.00
38398;DHT22;24179;52.094;4.408;2023-07-20T14:42:44;25.90;80.30
38398;DHT22;24179;52.094;4.408;2023-07-20T14:45:44;25.70;81.40
38398;DHT22;24179;52.094;4.408;2023-07-20T14:48:45;25.30;82.00
38398;DHT22;24179;52.094;4.408;2023-07-20T14:51:49;24.90;81.70
38398;DHT22;24179;52.094;4.408;2023-07-20T14:54:49;24.60;83.00
38398;DHT22;24179;52.094;4.408;2023-07-20T14:57:50;24.80;84.10
38398;DHT22;24179;52.094;4.408;2023-07-20T15:00:51;25.10;82.60
38398;DHT22;24179;52.094;4.408;2023-07-20T15:03:51;25.60;82.80
38398;DHT22;24179;52.094;4.408;2023-07-20T15:06:53;26.80;80.80
38398;DHT22;24179;52.094;4.408;2023-07-20T15:09:55;28.30;81.10
38398;DHT22;24179;52.094;4.408;2023-07-20T15:12:55;28.40;78.00
38398;DHT22;24179;52.094;4.408;2023-07-20T15:15:56;29.10;79.10
38398;DHT22;24179;52.094;4.408;2023-07-20T15:18:56;30.20;76.30
38398;DHT22;24179;52.094;4.408;2023-07-20T15:21:57;29.40;77.00
38398;DHT22;24179;52.094;4.408;2023-07-20T15:24:57;28.20;76.40
38398;DHT22;24179;52.094;4.408;2023-07-20T15:27:58;28.30;77.40
38398;DHT22;24179;52.094;4.408;2023-07-20T15:31:02;30.10;75.90
38398;DHT22;24179;52.094;4.408;2023-07-20T15:34:03;31.40;76.90
38398;DHT22;24179;52.094;4.408;2023-07-20T15:37:03;31.10;74.90
38398;DHT22;24179;52.094;4.408;2023-07-20T15:40:05;30.70;73.80
38398;DHT22;24179;52.094;4.408;2023-07-20T15:43:06;29.90;73.70
38398;DHT22;24179;52.094;4.408;2023-07-20T15:49:19;32.60;73.10
38398;DHT22;24179;52.094;4.408;2023-07-20T15:52:20;33.40;71.90
38398;DHT22;24179;52.094;4.408;2023-07-20T15:55:21;33.40;69.50
38398;DHT22;24179;52.094;4.408;2023-07-20T15:58:21;33.20;68.70
38398;DHT22;24179;52.094;4.408;2023-07-20T16:01:22;33.30;71.10
38398;DHT22;24179;52.094;4.408;2023-07-20T16:04:22;33.20;68.50
38398;DHT22;24179;52.094;4.408;2023-07-20T16:07:23;33.40;70.90
38398;DHT22;24179;52.094;4.408;2023-07-20T16:10:23;33.90;68.90
38398;DHT22;24179;52.094;4.408;2023-07-20T16:13:24;33.70;68.00
38398;DHT22;24179;52.094;4.408;2023-07-20T16:16:24;33.80;69.30
38398;DHT22;24179;52.094;4.408;2023-07-20T16:19:25;33.60;68.30
38398;DHT22;24179;52.094;4.408;2023-07-20T16:22:25;33.40;68.60
38398;DHT22;24179;52.094;4.408;2023-07-20T16:25:26;33.20;68.00
38398;DHT22;24179;52.094;4.408;2023-07-20T16:28:27;32.50;67.20
38398;DHT22;24179;52.094;4.408;2023-07-20T16:31:27;31.40;68.70
38398;DHT22;24179;52.094;4.408;2023-07-20T16:34:28;30.50;69.50
38398;DHT22;24179;52.094;4.408;2023-07-20T16:37:28;29.20;70.00
38398;DHT22;24179;52.094;4.408;2023-07-20T16:40:29;27.70;72.20
38398;DHT22;24179;52.094;4.408;2023-07-20T16:43:29;26.20;73.90
38398;DHT22;24179;52.094;4.408;2023-07-20T16:46:30;25.00;76.10
38398;DHT22;24179;52.094;4.408;2023-07-20T16:49:32;24.20;77.00
38398;DHT22;24179;52.094;4.408;2023-07-20T16:52:33;23.90;77.80
38398;DHT22;24179;52.094;4.408;2023-07-20T16:55:33;23.90;79.70
38398;DHT22;24179;52.094;4.408;2023-07-20T16:58:33;24.20;78.30
38398;DHT22;24179;52.094;4.408;2023-07-20T17:01:34;24.00;78.40
38398;DHT22;24179;52.094;4.408;2023-07-20T17:04:35;23.70;79.90
38398;DHT22;24179;52.094;4.408;2023-07-20T17:07:36;23.50;79.30
38398;DHT22;24179;52.094;4.408;2023-07-20T17:10:37;23.30;79.20
38398;DHT22;24179;52.094;4.408;2023-07-20T17:13:37;23.00;79.30
38398;DHT22;24179;52.094;4.408;2023-07-20T17:16:39;22.80;82.10
38398;DHT22;24179;52.094;4.408;2023-07-20T17:19:39;22.40;81.70
38398;DHT22;24179;52.094;4.408;2023-07-20T17:22:40;22.10;82.60
38398;DHT22;24179;52.094;4.408;2023-07-20T17:25:47;21.80;84.30
38398;DHT22;24179;52.094;4.408;2023-07-20T17:28:47;21.70;84.70
38398;DHT22;24179;52.094;4.408;2023-07-20T17:31:48;21.60;83.60
38398;DHT22;24179;52.094;4.408;2023-07-20T17:34:48;21.40;83.30
38398;DHT22;24179;52.094;4.408;2023-07-20T17:37:49;21.20;84.40
38398;DHT22;24179;52.094;4.408;2023-07-20T17:40:50;21.10;85.50
38398;DHT22;24179;52.094;4.408;2023-07-20T17:43:55;21.00;87.70
38398;DHT22;24179;52.094;4.408;2023-07-20T17:46:56;20.90;88.30
38398;DHT22;24179;52.094;4.408;2023-07-20T17:49:57;20.70;86.60
38398;DHT22;24179;52.094;4.408;2023-07-20T17:52:57;20.50;88.30
38398;DHT22;24179;52.094;4.408;2023-07-20T17:55:58;20.40;89.60
38398;DHT22;24179;52.094;4.408;2023-07-20T17:58:58;20.40;90.40
38398;DHT22;24179;52.094;4.408;2023-07-20T18:01:59;20.30;89.90
38398;DHT22;24179;52.094;4.408;2023-07-20T18:05:00;20.20;90.60
38398;DHT22;24179;52.094;4.408;2023-07-20T18:08:00;20.10;91.10
38398;DHT22;24179;52.094;4.408;2023-07-20T18:11:04;20.00;91.30
38398;DHT22;24179;52.094;4.408;2023-07-20T18:14:05;19.80;92.00
38398;DHT22;24179;52.094;4.408;2023-07-20T18:17:06;19.80;92.60
38398;DHT22;24179;52.094;4.408;2023-07-20T18:20:06;19.70;92.50
38398;DHT22;24179;52.094;4.408;2023-07-20T18:23:08;19.60;92.90
38398;DHT22;24179;52.094;4.408;2023-07-20T18:26:08;19.50;92.40
38398;DHT22;24179;52.094;4.408;2023-07-20T18:29:08;19.50;93.70
38398;DHT22;24179;52.094;4.408;2023-07-20T18:32:09;19.60;93.70
38398;DHT22;24179;52.094;4.408;2023-07-20T18:35:10;19.70;93.60
38398;DHT22;24179;52.094;4.408;2023-07-20T18:38:12;19.70;93.80
38398;DHT22;24179;52.094;4.408;2023-07-20T18:41:16;19.70;94.30
38398;DHT22;24179;52.094;4.408;2023-07-20T18:44:18;19.70;94.10
38398;DHT22;24179;52.094;4.408;2023-07-20T18:47:18;19.50;93.80
38398;DHT22;24179;52.094;4.408;2023-07-20T18:50:19;19.50;94.30
38398;DHT22;24179;52.094;4.408;2023-07-20T18:53:19;19.40;95.00
38398;DHT22;24179;52.094;4.408;2023-07-20T18:56:20;19.40;95.60
38398;DHT22;24179;52.094;4.408;2023-07-20T18:59:27;19.30;95.90
38398;DHT22;24179;52.094;4.408;2023-07-20T19:02:27;19.30;96.60
38398;DHT22;24179;52.094;4.408;2023-07-20T19:05:29;19.20;97.20
38398;DHT22;24179;52.094;4.408;2023-07-20T19:08:30;19.10;97.80
38398;DHT22;24179;52.094;4.408;2023-07-20T19:11:30;18.90;97.10
38398;DHT22;24179;52.094;4.408;2023-07-20T19:14:31;18.80;99.00
38398;DHT22;24179;52.094;4.408;2023-07-20T19:17:31;18.70;99.10
38398;DHT22;24179;52.094;4.408;2023-07-20T19:20:32;18.50;99.90